createdAt,value
2023-01-22T00:02:22.926Z,11.48
2023-01-22T00:04:55.040Z,11.77
2023-01-22T00:07:27.082Z,12.07
2023-01-22T00:10:00.246Z,12.07
2023-01-22T00:12:32.454Z,11.88
2023-01-22T00:15:05.181Z,11.75
2023-01-22T00:17:38.054Z,9.85
2023-01-22T00:20:12.533Z,10.80
2023-01-22T00:22:44.605Z,10.70
2023-01-22T00:25:16.688Z,10.80
2023-01-22T00:27:48.641Z,9.95
2023-01-22T00:30:26.680Z,10.32
2023-01-22T00:32:58.873Z,11.07
2023-01-22T00:35:31.255Z,9.70
2023-01-22T00:38:04.001Z,10.27
2023-01-22T00:40:36.197Z,9.75
2023-01-22T00:43:08.175Z,9.63
2023-01-22T00:45:40.224Z,9.90
2023-01-22T00:48:12.279Z,9.48
2023-01-22T00:50:44.346Z,9.50
2023-01-22T00:53:16.510Z,9.48
2023-01-22T00:55:58.713Z,9.02
2023-01-22T00:58:31.073Z,9.23
2023-01-22T01:01:04.677Z,9.55
2023-01-22T01:03:37.802Z,8.45
2023-01-22T01:06:31.712Z,9.30
2023-01-22T01:09:05.459Z,8.60
2023-01-22T01:12:03.749Z,7.63
2023-01-22T01:14:36.355Z,8.10
2023-01-22T01:17:08.403Z,8.48
2023-01-22T01:19:40.559Z,7.95
2023-01-22T01:22:12.745Z,7.75
2023-01-22T01:24:45.172Z,7.18
2023-01-22T01:27:18.093Z,7.32
2023-01-22T01:29:55.718Z,7.30
2023-01-22T01:32:28.787Z,7.13
2023-01-22T01:35:00.887Z,6.78
2023-01-22T01:37:36.221Z,7.22
2023-01-22T01:40:09.849Z,7.80
2023-01-22T01:42:46.810Z,6.90
2023-01-22T01:45:32.719Z,6.45
2023-01-22T01:48:38.531Z,7.15
2023-01-22T01:51:22.309Z,6.65
2023-01-22T01:53:55.258Z,6.57
2023-01-22T01:56:33.406Z,6.97
2023-01-22T01:59:12.080Z,6.05
2023-01-22T02:01:50.193Z,7.45
2023-01-22T02:04:24.179Z,6.60
2023-01-22T02:06:56.197Z,7.22
2023-01-22T02:09:28.211Z,8.30
2023-01-22T02:12:00.555Z,8.20
2023-01-22T02:14:37.712Z,7.60
2023-01-22T02:17:17.033Z,7.57
2023-01-22T02:19:49.137Z,6.90
2023-01-22T02:22:31.606Z,7.53
2023-01-22T02:25:04.279Z,7.47
2023-01-22T02:27:36.758Z,7.03
2023-01-22T02:30:17.120Z,7.38
2023-01-22T02:32:51.803Z,7.30
2023-01-22T02:35:27.801Z,6.70
2023-01-22T02:38:13.243Z,7.35
2023-01-22T02:40:49.510Z,6.28
2023-01-22T02:43:21.959Z,7.50
2023-01-22T02:45:54.892Z,6.13
2023-01-22T02:48:26.859Z,6.80
2023-01-22T02:50:58.939Z,6.07
2023-01-22T02:53:31.443Z,6.57
2023-01-22T02:56:11.461Z,6.68
2023-01-22T02:58:43.517Z,6.28
2023-01-22T03:01:25.263Z,6.25
2023-01-22T03:04:02.067Z,6.25
2023-01-22T03:06:34.054Z,6.43
2023-01-22T03:09:06.991Z,6.15
2023-01-22T03:11:41.843Z,7.60
2023-01-22T03:14:33.435Z,6.93
2023-01-22T03:17:26.548Z,7.63
2023-01-22T03:20:18.366Z,8.13
2023-01-22T03:22:50.600Z,6.93
2023-01-22T03:25:22.665Z,7.15
2023-01-22T03:28:16.489Z,7.32
2023-01-22T03:30:48.889Z,6.95
2023-01-22T03:33:20.880Z,7.40
2023-01-22T03:35:52.892Z,7.35
2023-01-22T03:38:25.001Z,9.38
2023-01-22T03:41:13.826Z,7.00
2023-01-22T03:43:46.988Z,8.00
2023-01-22T03:46:20.360Z,7.35
2023-01-22T03:48:53.159Z,8.98
2023-01-22T03:51:25.319Z,8.90
2023-01-22T03:53:59.184Z,7.43
2023-01-22T03:56:32.162Z,8.55
2023-01-22T03:59:07.776Z,8.63
2023-01-22T04:01:40.870Z,9.10
2023-01-22T04:04:12.931Z,7.85
2023-01-22T04:06:44.897Z,8.63
2023-01-22T04:09:16.955Z,9.63
2023-01-22T04:11:48.999Z,9.20
2023-01-22T04:14:20.990Z,8.82
2023-01-22T04:16:53.024Z,8.50
2023-01-22T04:19:27.149Z,9.10
2023-01-22T04:22:00.530Z,8.20
2023-01-22T04:24:32.509Z,9.18
2023-01-22T04:27:04.557Z,9.15
2023-01-22T04:29:44.080Z,8.23
2023-01-22T04:32:16.134Z,8.10
2023-01-22T04:34:48.335Z,9.43
2023-01-22T04:37:20.349Z,8.20
2023-01-22T04:39:52.371Z,8.57
2023-01-22T04:42:24.378Z,8.32
2023-01-22T04:44:56.547Z,9.15
2023-01-22T04:47:28.769Z,8.60
2023-01-22T04:50:00.933Z,8.32
2023-01-22T04:52:32.983Z,8.88
2023-01-22T04:55:06.122Z,8.18
2023-01-22T04:57:38.889Z,8.10
2023-01-22T05:00:12.829Z,8.45
2023-01-22T05:02:44.844Z,7.75
2023-01-22T05:05:26.400Z,8.65
2023-01-22T05:07:59.584Z,8.10
2023-01-22T05:10:31.825Z,8.30
2023-01-22T05:13:06.658Z,8.63
2023-01-22T05:15:39.008Z,7.88
2023-01-22T05:18:11.011Z,8.05
2023-01-22T05:20:43.046Z,7.63
2023-01-22T05:23:15.000Z,7.55
2023-01-22T05:25:50.560Z,7.70
2023-01-22T05:28:22.565Z,7.88
2023-01-22T05:30:54.679Z,8.13
2023-01-22T05:33:30.153Z,7.97
2023-01-22T05:36:03.687Z,7.22
2023-01-22T05:38:35.650Z,7.22
2023-01-22T05:41:07.628Z,9.00
2023-01-22T05:43:50.071Z,7.72
2023-01-22T05:46:28.217Z,7.00
2023-01-22T05:49:00.223Z,7.45
2023-01-22T05:51:32.612Z,7.82
2023-01-22T05:54:32.088Z,7.43
2023-01-22T05:57:06.087Z,7.18
2023-01-22T05:59:40.880Z,7.25
2023-01-22T06:02:12.924Z,7.07
2023-01-22T06:04:44.952Z,7.53
2023-01-22T06:07:16.911Z,8.63
2023-01-22T06:09:48.997Z,7.65
2023-01-22T06:12:21.022Z,7.53
2023-01-22T06:14:55.689Z,7.07
2023-01-22T06:17:27.647Z,6.90
2023-01-22T06:19:59.802Z,6.93
2023-01-22T06:22:31.847Z,8.32
2023-01-22T06:25:04.320Z,7.55
2023-01-22T06:27:36.309Z,7.85
2023-01-22T06:30:09.406Z,7.63
2023-01-22T06:32:41.393Z,8.55
2023-01-22T06:35:13.857Z,7.82
2023-01-22T06:37:45.963Z,7.40
2023-01-22T06:40:20.401Z,7.47
2023-01-22T06:42:52.628Z,7.95
2023-01-22T06:45:25.002Z,7.32
2023-01-22T06:47:58.211Z,7.22
2023-01-22T06:50:30.334Z,8.85
2023-01-22T06:53:02.300Z,7.80
2023-01-22T06:55:34.658Z,6.90
2023-01-22T06:58:16.778Z,7.47
2023-01-22T07:00:48.845Z,7.00
2023-01-22T07:03:22.918Z,6.18
2023-01-22T07:06:00.528Z,8.73
2023-01-22T07:08:33.897Z,7.45
2023-01-22T07:11:07.881Z,7.93
2023-01-22T07:13:40.128Z,7.82
2023-01-22T07:16:12.904Z,7.75
2023-01-22T07:18:45.030Z,7.65
2023-01-22T07:21:17.084Z,9.90
2023-01-22T07:23:49.194Z,7.28
2023-01-22T07:26:21.318Z,8.05
2023-01-22T07:28:53.489Z,7.00
2023-01-22T07:31:25.665Z,7.68
2023-01-22T07:34:01.641Z,7.80
2023-01-22T07:36:33.697Z,7.35
2023-01-22T07:39:16.626Z,8.05
2023-01-22T07:41:48.686Z,7.57
2023-01-22T07:44:29.233Z,7.75
2023-01-22T07:47:01.216Z,7.15
2023-01-22T07:49:33.160Z,7.72
2023-01-22T07:52:05.333Z,7.85
2023-01-22T07:54:37.313Z,8.25
2023-01-22T07:57:14.506Z,7.40
2023-01-22T07:59:46.577Z,7.72
2023-01-22T08:02:19.031Z,7.03
2023-01-22T08:04:51.042Z,6.72
2023-01-22T08:07:23.540Z,8.25
2023-01-22T08:09:55.686Z,7.78
2023-01-22T08:12:27.685Z,7.20
2023-01-22T08:14:59.659Z,7.18
2023-01-22T08:17:31.642Z,7.05
2023-01-22T08:20:04.971Z,7.38
2023-01-22T08:22:37.064Z,7.85
2023-01-22T08:25:09.939Z,7.25
2023-01-22T08:27:42.117Z,6.60
2023-01-22T08:30:16.155Z,8.48
2023-01-22T08:32:56.661Z,7.80
2023-01-22T08:35:29.907Z,6.65
2023-01-22T08:38:02.098Z,7.18
2023-01-22T08:40:35.644Z,7.50
2023-01-22T08:43:09.287Z,6.78
2023-01-22T08:45:41.716Z,7.07
2023-01-22T08:48:13.756Z,6.90
2023-01-22T08:50:46.097Z,6.68
2023-01-22T08:53:30.797Z,6.70
2023-01-22T08:56:02.889Z,7.22
2023-01-22T08:58:34.926Z,6.90
2023-01-22T09:01:07.172Z,6.28
2023-01-22T09:03:39.478Z,7.38
2023-01-22T09:06:12.268Z,6.80
2023-01-22T09:08:44.498Z,5.57
2023-01-22T09:11:17.168Z,6.85
2023-01-22T09:13:49.172Z,6.53
2023-01-22T09:16:21.670Z,6.65
2023-01-22T09:21:42.184Z,6.97
2023-01-22T09:24:14.429Z,5.97
2023-01-22T09:26:46.584Z,7.03
2023-01-22T09:29:18.548Z,7.43
2023-01-22T09:31:51.423Z,7.88
2023-01-22T09:34:23.599Z,7.18
2023-01-22T09:36:55.655Z,6.57
2023-01-22T09:39:27.635Z,7.07
2023-01-22T09:42:02.659Z,8.10
2023-01-22T09:44:39.594Z,6.57
2023-01-22T09:47:17.673Z,6.65
2023-01-22T09:50:27.982Z,7.40
2023-01-22T09:53:06.431Z,7.30
2023-01-22T09:58:52.046Z,6.72
2023-01-22T10:01:24.917Z,6.00
2023-01-22T10:04:04.043Z,6.13
2023-01-22T10:06:36.434Z,6.93
2023-01-22T10:09:08.304Z,6.60
2023-01-22T10:11:41.143Z,7.22
2023-01-22T10:14:18.118Z,6.30
2023-01-22T10:16:50.403Z,5.93
2023-01-22T10:19:32.949Z,6.63
2023-01-22T10:22:21.433Z,6.13
2023-01-22T10:24:54.285Z,6.43
2023-01-22T10:27:41.013Z,6.43
2023-01-22T10:30:24.023Z,6.70
2023-01-22T10:33:07.175Z,6.95
2023-01-22T10:35:46.540Z,6.35
2023-01-22T10:38:30.759Z,7.43
2023-01-22T10:41:04.569Z,6.13
2023-01-22T10:43:39.185Z,6.40
2023-01-22T10:46:24.570Z,5.97
2023-01-22T10:49:03.836Z,7.65
2023-01-22T10:51:40.483Z,8.27
2023-01-22T10:54:54.650Z,7.32
2023-01-22T10:57:43.988Z,7.20
2023-01-22T11:00:37.084Z,6.20
2023-01-22T11:03:34.922Z,7.05
2023-01-22T11:06:15.708Z,7.10
2023-01-22T11:09:08.708Z,7.20
2023-01-22T11:11:59.205Z,6.57
2023-01-22T11:14:36.923Z,7.47
2023-01-22T11:17:27.765Z,6.78
2023-01-22T11:20:32.864Z,6.45
2023-01-22T11:24:02.016Z,6.85
2023-01-22T11:27:24.467Z,6.97
2023-01-22T11:30:09.070Z,5.65
2023-01-22T11:32:50.048Z,6.80
2023-01-22T11:36:36.567Z,6.78
2023-01-22T11:39:38.544Z,6.72
2023-01-22T11:42:27.810Z,6.53
2023-01-22T11:46:11.286Z,6.32
2023-01-22T11:49:07.607Z,6.30
2023-01-22T11:52:32.099Z,7.22
2023-01-22T11:55:22.561Z,5.97
2023-01-22T11:58:12.398Z,6.40
2023-01-22T12:01:45.159Z,6.10
2023-01-22T12:05:31.012Z,6.18
2023-01-22T12:08:54.729Z,6.35
2023-01-22T12:11:51.248Z,5.63
2023-01-22T12:14:47.691Z,6.22
2023-01-22T12:17:57.723Z,5.40
2023-01-22T12:20:59.989Z,5.90
2023-01-22T12:23:51.426Z,5.43
2023-01-22T12:26:30.047Z,5.43
2023-01-22T12:29:37.207Z,5.13
2023-01-22T12:32:15.430Z,5.55
2023-01-22T12:35:01.568Z,6.20
2023-01-22T12:37:48.298Z,7.07
2023-01-22T12:41:08.324Z,7.68
2023-01-22T12:44:55.059Z,8.40
2023-01-22T12:48:35.198Z,7.63
2023-01-22T12:51:47.732Z,6.88
2023-01-22T12:54:29.945Z,6.65
2023-01-22T12:57:17.555Z,7.22
2023-01-22T12:59:56.885Z,5.47
2023-01-22T13:02:35.751Z,6.33
2023-01-22T13:05:19.352Z,6.38
2023-01-22T13:08:08.135Z,5.63
2023-01-22T13:10:40.239Z,6.20
2023-01-22T13:13:40.173Z,5.80
2023-01-22T13:16:35.006Z,5.20
2023-01-22T13:19:24.048Z,6.25
2023-01-22T13:22:00.882Z,4.95
2023-01-22T13:24:33.350Z,5.35
2023-01-22T13:27:05.562Z,4.82
2023-01-22T13:29:39.471Z,6.55
2023-01-22T13:32:23.269Z,5.53
2023-01-22T13:35:06.739Z,5.80
2023-01-22T13:37:41.480Z,6.00
2023-01-22T13:40:23.234Z,5.10
2023-01-22T13:42:56.768Z,6.00
2023-01-22T13:46:04.406Z,5.82
2023-01-22T13:48:36.371Z,5.78
2023-01-22T13:51:18.631Z,6.30
2023-01-22T13:53:54.679Z,5.43
2023-01-22T13:56:28.033Z,6.28
2023-01-22T13:59:18.834Z,5.03
2023-01-22T14:01:52.327Z,7.13
2023-01-22T14:04:37.429Z,5.32
2023-01-22T14:07:20.717Z,5.60
2023-01-22T14:09:54.417Z,5.93
2023-01-22T14:12:27.508Z,6.18
2023-01-22T14:14:59.638Z,5.97
2023-01-22T14:17:37.244Z,6.07
2023-01-22T14:20:10.477Z,7.32
2023-01-22T14:22:42.525Z,7.10
2023-01-22T14:25:14.916Z,5.97
2023-01-22T14:27:50.770Z,6.05
2023-01-22T14:30:22.904Z,6.18
2023-01-22T14:32:54.983Z,6.18
2023-01-22T14:35:30.323Z,5.78
2023-01-22T14:38:02.436Z,5.53
2023-01-22T14:40:35.043Z,5.55
2023-01-22T14:43:07.203Z,6.28
2023-01-22T14:45:56.368Z,6.20
2023-01-22T14:48:28.517Z,5.50
2023-01-22T14:51:00.618Z,5.03
2023-01-22T14:53:39.647Z,5.97
2023-01-22T14:56:11.734Z,5.70
2023-01-22T14:58:43.780Z,5.95
2023-01-22T15:01:19.903Z,5.68
2023-01-22T15:03:59.023Z,5.13
2023-01-22T15:06:59.962Z,4.95
2023-01-22T15:09:32.313Z,5.63
2023-01-22T15:12:04.986Z,4.95
2023-01-22T15:14:37.069Z,5.22
2023-01-22T15:17:09.096Z,5.88
2023-01-22T15:20:01.193Z,5.25
2023-01-22T15:22:33.283Z,5.82
2023-01-22T15:25:06.216Z,5.00
2023-01-22T15:27:38.659Z,4.80
2023-01-22T15:30:12.825Z,5.22
2023-01-22T15:32:44.934Z,5.72
2023-01-22T15:35:17.251Z,6.15
2023-01-22T15:37:49.388Z,5.20
2023-01-22T15:40:21.978Z,5.30
2023-01-22T15:42:54.397Z,5.28
2023-01-22T15:45:59.552Z,6.55
2023-01-22T15:48:31.607Z,6.63
2023-01-22T15:51:12.489Z,6.18
2023-01-22T15:53:56.236Z,6.50
2023-01-22T15:56:32.585Z,6.28
2023-01-22T15:59:05.802Z,6.95
2023-01-22T16:01:40.203Z,11.70
2023-01-22T16:04:12.265Z,7.82
2023-01-22T16:06:44.774Z,5.57
2023-01-22T16:09:21.777Z,5.47
2023-01-22T16:11:53.952Z,6.25
2023-01-22T16:14:28.132Z,5.38
2023-01-22T16:17:00.817Z,10.48
2023-01-22T16:19:59.523Z,8.35
2023-01-22T16:25:40.341Z,5.65
2023-01-22T16:28:12.374Z,5.57
2023-01-22T16:30:50.383Z,6.78
2023-01-22T16:33:29.636Z,6.15
2023-01-22T16:36:03.789Z,5.78
2023-01-22T16:38:37.007Z,6.82
2023-01-22T16:41:24.278Z,7.05
2023-01-22T16:44:12.826Z,7.30
2023-01-22T16:46:52.455Z,7.18
2023-01-22T16:49:35.040Z,7.03
2023-01-22T16:52:21.884Z,7.93
2023-01-22T16:54:55.068Z,7.72
2023-01-22T16:57:27.142Z,8.00
2023-01-22T16:59:59.389Z,6.78
2023-01-22T17:02:31.917Z,7.25
2023-01-22T17:05:06.761Z,8.68
2023-01-22T17:07:40.656Z,8.35
2023-01-22T17:10:13.144Z,7.53
2023-01-22T17:12:48.739Z,9.98
2023-01-22T17:15:22.615Z,10.10
2023-01-22T17:17:54.997Z,20.88
2023-01-22T17:20:27.255Z,9.65
2023-01-22T17:22:59.675Z,7.25
2023-01-22T17:25:31.757Z,14.95
2023-01-22T17:28:04.003Z,10.48
2023-01-22T17:30:36.269Z,10.05
2023-01-22T17:33:08.482Z,6.55
2023-01-22T17:35:42.110Z,6.93
2023-01-22T17:38:14.586Z,7.47
2023-01-22T17:40:46.606Z,7.72
2023-01-22T17:43:18.802Z,6.65
2023-01-22T17:45:51.490Z,6.63
2023-01-22T17:48:23.728Z,6.82
2023-01-22T17:51:02.325Z,9.15
2023-01-22T17:53:38.313Z,8.88
2023-01-22T17:56:24.304Z,8.18
2023-01-22T17:59:00.508Z,9.80
2023-01-22T18:01:35.224Z,9.75
2023-01-22T18:04:10.688Z,7.57
2023-01-22T18:06:43.979Z,6.45
2023-01-22T18:09:16.434Z,7.05
2023-01-22T18:11:48.874Z,7.30
2023-01-22T18:14:25.547Z,7.10
2023-01-22T18:16:57.828Z,7.57
2023-01-22T18:19:30.032Z,7.25
2023-01-22T18:22:02.196Z,10.52
2023-01-22T18:24:36.371Z,9.73
2023-01-22T18:27:08.430Z,7.38
2023-01-22T18:29:41.524Z,8.73
2023-01-22T18:32:13.621Z,7.70
2023-01-22T18:34:45.620Z,6.45
2023-01-22T18:37:17.635Z,6.63
2023-01-22T18:39:49.770Z,8.27
2023-01-22T18:42:21.863Z,7.15
2023-01-22T18:44:54.178Z,6.80
2023-01-22T18:47:26.258Z,6.40
2023-01-22T18:49:58.292Z,6.40
2023-01-22T18:52:30.414Z,6.63
2023-01-22T18:55:02.731Z,7.25
2023-01-22T18:57:37.077Z,6.35
2023-01-22T19:00:11.613Z,7.13
2023-01-22T19:02:43.882Z,5.97
2023-01-22T19:05:16.140Z,6.30
2023-01-22T19:07:48.227Z,6.47
2023-01-22T19:10:20.602Z,6.25
2023-01-22T19:12:52.603Z,7.03
2023-01-22T19:15:24.736Z,5.93
2023-01-22T19:17:56.839Z,6.78
2023-01-22T19:20:29.062Z,7.25
2023-01-22T19:23:01.223Z,6.97
2023-01-22T19:25:33.414Z,6.63
2023-01-22T19:28:07.782Z,6.85
2023-01-22T19:30:39.889Z,13.00
2023-01-22T19:33:12.031Z,10.88
2023-01-22T19:35:49.426Z,11.23
2023-01-22T19:38:22.169Z,6.85
2023-01-22T19:40:54.293Z,6.28
2023-01-22T19:43:26.423Z,5.60
2023-01-22T19:46:07.450Z,5.65
2023-01-22T19:48:40.973Z,5.10
2023-01-22T19:51:18.001Z,4.82
2023-01-22T19:53:50.401Z,6.25
2023-01-22T19:56:30.914Z,5.50
2023-01-22T19:59:17.054Z,5.13
2023-01-22T20:01:52.720Z,4.82
2023-01-22T20:04:33.655Z,5.40
2023-01-22T20:07:06.012Z,4.95
2023-01-22T20:09:47.403Z,5.82
2023-01-22T20:12:27.731Z,5.28
2023-01-22T20:14:59.939Z,5.78
2023-01-22T20:17:33.029Z,5.13
2023-01-22T20:20:11.077Z,4.97
2023-01-22T20:22:47.484Z,5.70
2023-01-22T20:25:21.921Z,5.50
2023-01-22T20:27:54.185Z,6.22
2023-01-22T20:30:26.953Z,6.30
2023-01-22T20:32:59.072Z,5.95
2023-01-22T20:35:32.290Z,6.07
2023-01-22T20:39:00.948Z,6.43
2023-01-22T20:41:34.542Z,5.60
2023-01-22T20:44:07.033Z,6.55
2023-01-22T20:46:41.490Z,6.57
2023-01-22T20:49:13.880Z,6.28
2023-01-22T20:51:46.281Z,6.18
2023-01-22T20:54:54.765Z,5.78
2023-01-22T20:57:34.084Z,5.03
2023-01-22T21:00:07.419Z,6.25
2023-01-22T21:02:39.576Z,6.03
2023-01-22T21:05:11.728Z,5.65
2023-01-22T21:07:43.741Z,7.47
2023-01-22T21:10:16.411Z,6.40
2023-01-22T21:12:48.710Z,5.85
2023-01-22T21:15:20.845Z,5.68
2023-01-22T21:17:54.796Z,5.30
2023-01-22T21:20:26.961Z,5.43
2023-01-22T21:23:01.611Z,5.13
2023-01-22T21:25:40.527Z,4.97
2023-01-22T21:28:15.848Z,5.85
2023-01-22T21:30:48.068Z,5.80
2023-01-22T21:33:20.137Z,6.60
2023-01-22T21:39:00.052Z,6.40
2023-01-22T21:41:34.168Z,5.57
2023-01-22T21:44:25.722Z,6.10
2023-01-22T21:46:57.875Z,5.32
2023-01-22T21:49:31.004Z,6.10
2023-01-22T21:55:57.505Z,6.57
2023-01-22T21:58:29.469Z,7.03
2023-01-22T22:01:24.083Z,5.80
2023-01-22T22:03:56.150Z,6.32
2023-01-22T22:06:32.944Z,6.47
2023-01-22T22:09:12.081Z,9.00
2023-01-22T22:11:45.398Z,15.20
2023-01-22T22:14:59.699Z,7.95
2023-01-22T22:17:31.865Z,6.95
2023-01-22T22:20:06.205Z,6.80
2023-01-22T22:22:38.353Z,6.35
2023-01-22T22:25:10.426Z,7.38
2023-01-22T22:27:45.185Z,7.60
2023-01-22T22:30:17.937Z,6.40
2023-01-22T22:32:50.315Z,6.97
2023-01-22T22:35:22.335Z,7.78
2023-01-22T22:38:01.723Z,6.05
2023-01-22T22:40:33.722Z,7.53
2023-01-22T22:43:05.978Z,7.30
2023-01-22T22:45:38.522Z,6.93
2023-01-22T22:48:10.573Z,7.20
2023-01-22T22:50:43.372Z,6.32
2023-01-22T22:53:31.003Z,7.25
2023-01-22T22:56:05.479Z,6.63
2023-01-22T22:58:38.387Z,7.57
2023-01-22T23:01:19.579Z,7.13
2023-01-22T23:03:53.639Z,7.15
2023-01-22T23:06:29.815Z,7.60
2023-01-22T23:09:04.536Z,6.65
2023-01-22T23:11:38.453Z,6.72
2023-01-22T23:14:14.603Z,7.25
2023-01-22T23:16:49.214Z,6.70
2023-01-22T23:19:25.688Z,7.13
2023-01-22T23:22:00.257Z,7.07
2023-01-22T23:24:32.751Z,6.63
2023-01-22T23:27:04.895Z,6.80
2023-01-22T23:29:37.024Z,6.72
2023-01-22T23:32:09.032Z,6.80
2023-01-22T23:34:41.415Z,7.00
2023-01-22T23:37:14.466Z,6.63
2023-01-22T23:42:33.014Z,7.38
2023-01-22T23:45:05.774Z,6.75
2023-01-22T23:47:37.906Z,6.65
2023-01-22T23:50:10.639Z,7.05
2023-01-22T23:52:43.909Z,6.35
2023-01-22T23:55:16.341Z,6.40
2023-01-22T23:57:48.299Z,6.10
